sensor_id;sensor_type;location;lat;lon;timestamp;P1;durP1;ratioP1;P2;durP2;ratioP2
20090;SDS011;10205;49.678;6.560;2024-01-15T00:00:41;19.87;;;12.53;;
20090;SDS011;10205;49.678;6.560;2024-01-15T00:03:09;17.83;;;11.77;;
20090;SDS011;10205;49.678;6.560;2024-01-15T00:05:36;20.70;;;12.87;;
20090;SDS011;10205;49.678;6.560;2024-01-15T00:08:03;19.97;;;13.30;;
20090;SDS011;10205;49.678;6.560;2024-01-15T00:10:30;19.50;;;12.87;;
20090;SDS011;10205;49.678;6.560;2024-01-15T00:12:57;19.47;;;12.60;;
20090;SDS011;10205;49.678;6.560;2024-01-15T00:15:26;19.13;;;12.07;;
20090;SDS011;10205;49.678;6.560;2024-01-15T00:17:55;20.63;;;13.43;;
20090;SDS011;10205;49.678;6.560;2024-01-15T00:20:22;25.00;;;14.17;;
20090;SDS011;10205;49.678;6.560;2024-01-15T00:22:49;19.90;;;12.60;;
20090;SDS011;10205;49.678;6.560;2024-01-15T00:25:16;21.40;;;13.53;;
20090;SDS011;10205;49.678;6.560;2024-01-15T00:27:44;19.17;;;12.20;;
20090;SDS011;10205;49.678;6.560;2024-01-15T00:30:11;18.37;;;12.40;;
20090;SDS011;10205;49.678;6.560;2024-01-15T00:32:41;23.13;;;13.40;;
20090;SDS011;10205;49.678;6.560;2024-01-15T00:35:08;21.87;;;13.37;;
20090;SDS011;10205;49.678;6.560;2024-01-15T00:37:35;19.27;;;12.13;;
20090;SDS011;10205;49.678;6.560;2024-01-15T00:40:03;23.23;;;13.23;;
20090;SDS011;10205;49.678;6.560;2024-01-15T00:42:32;21.57;;;13.23;;
20090;SDS011;10205;49.678;6.560;2024-01-15T00:45:00;21.87;;;12.30;;
20090;SDS011;10205;49.678;6.560;2024-01-15T00:47:27;21.53;;;12.43;;
20090;SDS011;10205;49.678;6.560;2024-01-15T00:49:55;20.77;;;12.40;;
20090;SDS011;10205;49.678;6.560;2024-01-15T00:52:22;23.10;;;13.27;;
20090;SDS011;10205;49.678;6.560;2024-01-15T00:54:49;23.73;;;14.13;;
20090;SDS011;10205;49.678;6.560;2024-01-15T00:57:16;22.70;;;13.03;;
20090;SDS011;10205;49.678;6.560;2024-01-15T00:59:44;22.03;;;12.83;;
20090;SDS011;10205;49.678;6.560;2024-01-15T01:02:11;19.07;;;12.57;;
20090;SDS011;10205;49.678;6.560;2024-01-15T01:04:38;20.97;;;12.97;;
20090;SDS011;10205;49.678;6.560;2024-01-15T01:07:07;22.13;;;13.10;;
20090;SDS011;10205;49.678;6.560;2024-01-15T01:09:34;22.60;;;12.87;;
20090;SDS011;10205;49.678;6.560;2024-01-15T01:12:02;22.90;;;13.93;;
20090;SDS011;10205;49.678;6.560;2024-01-15T01:14:29;24.67;;;13.93;;
20090;SDS011;10205;49.678;6.560;2024-01-15T01:16:56;25.27;;;14.23;;
20090;SDS011;10205;49.678;6.560;2024-01-15T01:19:23;22.60;;;13.37;;
20090;SDS011;10205;49.678;6.560;2024-01-15T01:21:51;24.10;;;13.23;;
20090;SDS011;10205;49.678;6.560;2024-01-15T01:24:19;25.33;;;14.67;;
20090;SDS011;10205;49.678;6.560;2024-01-15T01:26:46;21.20;;;13.43;;
20090;SDS011;10205;49.678;6.560;2024-01-15T01:29:14;24.00;;;13.83;;
20090;SDS011;10205;49.678;6.560;2024-01-15T01:31:42;24.70;;;14.03;;
20090;SDS011;10205;49.678;6.560;2024-01-15T01:34:10;24.10;;;13.33;;
20090;SDS011;10205;49.678;6.560;2024-01-15T01:36:40;25.70;;;14.17;;
20090;SDS011;10205;49.678;6.560;2024-01-15T01:39:07;20.90;;;13.60;;
20090;SDS011;10205;49.678;6.560;2024-01-15T01:41:35;24.53;;;14.43;;
20090;SDS011;10205;49.678;6.560;2024-01-15T01:44:04;22.67;;;14.30;;
20090;SDS011;10205;49.678;6.560;2024-01-15T01:46:32;25.97;;;15.33;;
20090;SDS011;10205;49.678;6.560;2024-01-15T01:49:04;23.30;;;13.67;;
20090;SDS011;10205;49.678;6.560;2024-01-15T01:51:32;24.20;;;14.53;;
20090;SDS011;10205;49.678;6.560;2024-01-15T01:54:02;23.33;;;13.90;;
20090;SDS011;10205;49.678;6.560;2024-01-15T01:56:31;25.10;;;13.77;;
20090;SDS011;10205;49.678;6.560;2024-01-15T01:59:00;22.63;;;13.73;;
20090;SDS011;10205;49.678;6.560;2024-01-15T02:01:30;22.80;;;15.00;;
20090;SDS011;10205;49.678;6.560;2024-01-15T02:03:57;22.63;;;13.70;;
20090;SDS011;10205;49.678;6.560;2024-01-15T02:06:26;21.47;;;13.43;;
20090;SDS011;10205;49.678;6.560;2024-01-15T02:08:53;26.90;;;14.37;;
20090;SDS011;10205;49.678;6.560;2024-01-15T02:11:20;22.20;;;13.50;;
20090;SDS011;10205;49.678;6.560;2024-01-15T02:13:47;27.50;;;15.17;;
20090;SDS011;10205;49.678;6.560;2024-01-15T02:16:16;24.60;;;14.00;;
20090;SDS011;10205;49.678;6.560;2024-01-15T02:18:44;22.43;;;13.43;;
20090;SDS011;10205;49.678;6.560;2024-01-15T02:21:12;22.07;;;13.37;;
20090;SDS011;10205;49.678;6.560;2024-01-15T02:23:41;22.00;;;13.80;;
20090;SDS011;10205;49.678;6.560;2024-01-15T02:26:08;22.67;;;14.27;;
20090;SDS011;10205;49.678;6.560;2024-01-15T02:28:35;23.23;;;13.37;;
20090;SDS011;10205;49.678;6.560;2024-01-15T02:31:03;26.03;;;15.17;;
20090;SDS011;10205;49.678;6.560;2024-01-15T02:33:30;24.13;;;15.33;;
20090;SDS011;10205;49.678;6.560;2024-01-15T02:35:57;21.23;;;13.10;;
20090;SDS011;10205;49.678;6.560;2024-01-15T02:38:24;22.43;;;14.37;;
20090;SDS011;10205;49.678;6.560;2024-01-15T02:40:52;23.30;;;14.70;;
20090;SDS011;10205;49.678;6.560;2024-01-15T02:43:19;24.07;;;14.73;;
20090;SDS011;10205;49.678;6.560;2024-01-15T02:45:47;24.17;;;14.53;;
20090;SDS011;10205;49.678;6.560;2024-01-15T02:48:14;22.93;;;14.13;;
20090;SDS011;10205;49.678;6.560;2024-01-15T02:50:41;20.87;;;13.50;;
20090;SDS011;10205;49.678;6.560;2024-01-15T02:53:08;23.50;;;14.00;;
20090;SDS011;10205;49.678;6.560;2024-01-15T02:55:35;25.47;;;14.37;;
20090;SDS011;10205;49.678;6.560;2024-01-15T02:58:04;29.87;;;15.70;;
20090;SDS011;10205;49.678;6.560;2024-01-15T03:00:31;23.67;;;14.10;;
20090;SDS011;10205;49.678;6.560;2024-01-15T03:02:58;22.40;;;14.20;;
20090;SDS011;10205;49.678;6.560;2024-01-15T03:05:25;22.40;;;13.33;;
20090;SDS011;10205;49.678;6.560;2024-01-15T03:07:52;23.10;;;14.13;;
20090;SDS011;10205;49.678;6.560;2024-01-15T03:10:19;24.33;;;14.53;;
20090;SDS011;10205;49.678;6.560;2024-01-15T03:12:46;23.73;;;14.00;;
20090;SDS011;10205;49.678;6.560;2024-01-15T03:15:15;22.10;;;13.23;;
20090;SDS011;10205;49.678;6.560;2024-01-15T03:17:43;23.90;;;13.63;;
20090;SDS011;10205;49.678;6.560;2024-01-15T03:20:11;22.93;;;14.37;;
20090;SDS011;10205;49.678;6.560;2024-01-15T03:22:38;23.47;;;14.07;;
20090;SDS011;10205;49.678;6.560;2024-01-15T03:25:05;22.50;;;14.27;;
20090;SDS011;10205;49.678;6.560;2024-01-15T03:27:33;23.47;;;13.87;;
20090;SDS011;10205;49.678;6.560;2024-01-15T03:30:00;21.20;;;13.83;;
20090;SDS011;10205;49.678;6.560;2024-01-15T03:32:29;22.53;;;14.23;;
20090;SDS011;10205;49.678;6.560;2024-01-15T03:34:56;26.50;;;15.50;;
20090;SDS011;10205;49.678;6.560;2024-01-15T03:37:24;25.43;;;14.57;;
20090;SDS011;10205;49.678;6.560;2024-01-15T03:39:51;25.27;;;15.47;;
20090;SDS011;10205;49.678;6.560;2024-01-15T03:42:18;23.63;;;14.63;;
20090;SDS011;10205;49.678;6.560;2024-01-15T03:44:45;24.87;;;15.10;;
20090;SDS011;10205;49.678;6.560;2024-01-15T03:47:12;22.13;;;14.27;;
20090;SDS011;10205;49.678;6.560;2024-01-15T03:49:41;24.23;;;14.00;;
20090;SDS011;10205;49.678;6.560;2024-01-15T03:52:08;24.37;;;14.77;;
20090;SDS011;10205;49.678;6.560;2024-01-15T03:54:35;23.40;;;14.07;;
20090;SDS011;10205;49.678;6.560;2024-01-15T03:57:03;25.70;;;15.27;;
20090;SDS011;10205;49.678;6.560;2024-01-15T03:59:30;23.30;;;14.30;;
20090;SDS011;10205;49.678;6.560;2024-01-15T04:01:57;25.17;;;14.27;;
20090;SDS011;10205;49.678;6.560;2024-01-15T04:04:24;22.57;;;14.10;;
20090;SDS011;10205;49.678;6.560;2024-01-15T04:06:53;24.73;;;15.00;;
20090;SDS011;10205;49.678;6.560;2024-01-15T04:09:20;22.53;;;14.17;;
20090;SDS011;10205;49.678;6.560;2024-01-15T04:11:47;25.70;;;15.83;;
20090;SDS011;10205;49.678;6.560;2024-01-15T04:14:14;22.20;;;14.23;;
20090;SDS011;10205;49.678;6.560;2024-01-15T04:16:42;26.47;;;15.80;;
20090;SDS011;10205;49.678;6.560;2024-01-15T04:19:09;26.97;;;16.07;;
20090;SDS011;10205;49.678;6.560;2024-01-15T04:21:36;23.70;;;15.03;;
20090;SDS011;10205;49.678;6.560;2024-01-15T04:24:05;22.10;;;14.23;;
20090;SDS011;10205;49.678;6.560;2024-01-15T04:26:32;23.13;;;13.93;;
20090;SDS011;10205;49.678;6.560;2024-01-15T04:28:59;24.43;;;14.07;;
20090;SDS011;10205;49.678;6.560;2024-01-15T04:31:26;26.50;;;15.90;;
20090;SDS011;10205;49.678;6.560;2024-01-15T04:33:53;28.63;;;16.87;;
20090;SDS011;10205;49.678;6.560;2024-01-15T04:36:20;26.00;;;14.93;;
20090;SDS011;10205;49.678;6.560;2024-01-15T04:38:48;24.57;;;14.73;;
20090;SDS011;10205;49.678;6.560;2024-01-15T04:41:16;25.23;;;15.10;;
20090;SDS011;10205;49.678;6.560;2024-01-15T04:43:43;26.33;;;15.37;;
20090;SDS011;10205;49.678;6.560;2024-01-15T04:46:10;24.50;;;14.63;;
20090;SDS011;10205;49.678;6.560;2024-01-15T04:48:37;24.17;;;14.57;;
20090;SDS011;10205;49.678;6.560;2024-01-15T04:51:05;24.50;;;14.57;;
20090;SDS011;10205;49.678;6.560;2024-01-15T04:53:34;23.93;;;15.07;;
20090;SDS011;10205;49.678;6.560;2024-01-15T04:56:02;23.17;;;14.17;;
20090;SDS011;10205;49.678;6.560;2024-01-15T04:58:31;21.80;;;14.03;;
20090;SDS011;10205;49.678;6.560;2024-01-15T05:00:58;25.10;;;14.37;;
20090;SDS011;10205;49.678;6.560;2024-01-15T05:03:25;21.73;;;13.93;;
20090;SDS011;10205;49.678;6.560;2024-01-15T05:05:52;24.63;;;15.30;;
20090;SDS011;10205;49.678;6.560;2024-01-15T05:08:19;25.40;;;14.97;;
20090;SDS011;10205;49.678;6.560;2024-01-15T05:10:46;20.40;;;12.90;;
20090;SDS011;10205;49.678;6.560;2024-01-15T05:13:13;21.27;;;13.97;;
20090;SDS011;10205;49.678;6.560;2024-01-15T05:15:42;21.03;;;13.83;;
20090;SDS011;10205;49.678;6.560;2024-01-15T05:18:09;24.73;;;14.80;;
20090;SDS011;10205;49.678;6.560;2024-01-15T05:20:36;21.43;;;14.43;;
20090;SDS011;10205;49.678;6.560;2024-01-15T05:23:03;22.33;;;13.53;;
20090;SDS011;10205;49.678;6.560;2024-01-15T05:25:30;24.93;;;15.30;;
20090;SDS011;10205;49.678;6.560;2024-01-15T05:27:57;20.73;;;14.60;;
20090;SDS011;10205;49.678;6.560;2024-01-15T05:30:24;21.23;;;14.30;;
20090;SDS011;10205;49.678;6.560;2024-01-15T05:32:53;23.23;;;14.17;;
20090;SDS011;10205;49.678;6.560;2024-01-15T05:35:20;19.43;;;13.47;;
20090;SDS011;10205;49.678;6.560;2024-01-15T05:37:47;21.47;;;13.77;;
20090;SDS011;10205;49.678;6.560;2024-01-15T05:40:14;22.33;;;14.30;;
20090;SDS011;10205;49.678;6.560;2024-01-15T05:42:41;22.60;;;13.93;;
20090;SDS011;10205;49.678;6.560;2024-01-15T05:45:08;21.77;;;14.00;;
20090;SDS011;10205;49.678;6.560;2024-01-15T05:47:35;21.83;;;13.13;;
20090;SDS011;10205;49.678;6.560;2024-01-15T05:50:04;21.17;;;14.07;;
20090;SDS011;10205;49.678;6.560;2024-01-15T05:52:32;23.97;;;14.53;;
20090;SDS011;10205;49.678;6.560;2024-01-15T05:54:59;22.13;;;14.50;;
20090;SDS011;10205;49.678;6.560;2024-01-15T05:57:28;23.07;;;14.33;;
20090;SDS011;10205;49.678;6.560;2024-01-15T05:59:55;19.67;;;13.33;;
20090;SDS011;10205;49.678;6.560;2024-01-15T06:02:22;20.63;;;13.87;;
20090;SDS011;10205;49.678;6.560;2024-01-15T06:04:49;20.10;;;13.70;;
20090;SDS011;10205;49.678;6.560;2024-01-15T06:07:18;20.43;;;13.37;;
20090;SDS011;10205;49.678;6.560;2024-01-15T06:09:45;24.93;;;13.43;;
20090;SDS011;10205;49.678;6.560;2024-01-15T06:12:12;19.63;;;13.77;;
20090;SDS011;10205;49.678;6.560;2024-01-15T06:14:39;20.83;;;14.13;;
20090;SDS011;10205;49.678;6.560;2024-01-15T06:17:07;20.80;;;13.63;;
20090;SDS011;10205;49.678;6.560;2024-01-15T06:19:34;21.17;;;14.17;;
20090;SDS011;10205;49.678;6.560;2024-01-15T06:22:01;20.97;;;14.43;;
20090;SDS011;10205;49.678;6.560;2024-01-15T06:24:30;20.80;;;13.70;;
20090;SDS011;10205;49.678;6.560;2024-01-15T06:26:57;20.10;;;13.50;;
20090;SDS011;10205;49.678;6.560;2024-01-15T06:29:25;20.80;;;13.67;;
20090;SDS011;10205;49.678;6.560;2024-01-15T06:31:53;22.63;;;14.87;;
20090;SDS011;10205;49.678;6.560;2024-01-15T06:34:20;20.97;;;14.40;;
20090;SDS011;10205;49.678;6.560;2024-01-15T06:36:47;22.37;;;15.33;;
20090;SDS011;10205;49.678;6.560;2024-01-15T06:39:14;22.57;;;14.70;;
20090;SDS011;10205;49.678;6.560;2024-01-15T06:41:42;21.23;;;14.17;;
20090;SDS011;10205;49.678;6.560;2024-01-15T06:44:09;22.43;;;14.93;;
20090;SDS011;10205;49.678;6.560;2024-01-15T06:46:41;20.87;;;14.67;;
20090;SDS011;10205;49.678;6.560;2024-01-15T06:49:08;23.17;;;15.73;;
20090;SDS011;10205;49.678;6.560;2024-01-15T06:51:36;23.90;;;15.53;;
20090;SDS011;10205;49.678;6.560;2024-01-15T06:54:03;19.70;;;13.77;;
20090;SDS011;10205;49.678;6.560;2024-01-15T06:56:31;21.50;;;14.27;;
20090;SDS011;10205;49.678;6.560;2024-01-15T06:59:00;22.03;;;14.63;;
20090;SDS011;10205;49.678;6.560;2024-01-15T07:01:27;21.30;;;14.83;;
20090;SDS011;10205;49.678;6.560;2024-01-15T07:03:55;21.20;;;14.07;;
20090;SDS011;10205;49.678;6.560;2024-01-15T07:06:22;21.23;;;13.67;;
20090;SDS011;10205;49.678;6.560;2024-01-15T07:08:49;21.20;;;14.33;;
20090;SDS011;10205;49.678;6.560;2024-01-15T07:11:16;20.97;;;13.30;;
20090;SDS011;10205;49.678;6.560;2024-01-15T07:13:43;18.93;;;12.87;;
20090;SDS011;10205;49.678;6.560;2024-01-15T07:16:12;20.50;;;13.60;;
20090;SDS011;10205;49.678;6.560;2024-01-15T07:18:39;20.73;;;13.83;;
20090;SDS011;10205;49.678;6.560;2024-01-15T07:21:06;22.93;;;14.67;;
20090;SDS011;10205;49.678;6.560;2024-01-15T07:23:34;22.50;;;14.73;;
20090;SDS011;10205;49.678;6.560;2024-01-15T07:26:01;22.47;;;14.47;;
20090;SDS011;10205;49.678;6.560;2024-01-15T07:28:30;24.33;;;16.23;;
20090;SDS011;10205;49.678;6.560;2024-01-15T07:30:57;21.80;;;14.87;;
20090;SDS011;10205;49.678;6.560;2024-01-15T07:33:26;23.60;;;15.67;;
20090;SDS011;10205;49.678;6.560;2024-01-15T07:35:52;23.90;;;15.40;;
20090;SDS011;10205;49.678;6.560;2024-01-15T07:38:20;22.80;;;15.87;;
20090;SDS011;10205;49.678;6.560;2024-01-15T07:40:47;23.07;;;15.07;;
20090;SDS011;10205;49.678;6.560;2024-01-15T07:43:14;22.00;;;15.10;;
20090;SDS011;10205;49.678;6.560;2024-01-15T07:45:42;23.70;;;15.40;;
20090;SDS011;10205;49.678;6.560;2024-01-15T07:48:10;22.23;;;14.60;;
20090;SDS011;10205;49.678;6.560;2024-01-15T07:50:38;24.10;;;15.17;;
20090;SDS011;10205;49.678;6.560;2024-01-15T07:53:05;23.70;;;14.83;;
20090;SDS011;10205;49.678;6.560;2024-01-15T07:55:32;24.60;;;14.80;;
20090;SDS011;10205;49.678;6.560;2024-01-15T07:58:00;23.93;;;14.80;;
20090;SDS011;10205;49.678;6.560;2024-01-15T08:00:27;20.27;;;14.80;;
20090;SDS011;10205;49.678;6.560;2024-01-15T08:02:54;21.57;;;15.80;;
20090;SDS011;10205;49.678;6.560;2024-01-15T08:05:21;23.03;;;14.93;;
20090;SDS011;10205;49.678;6.560;2024-01-15T08:07:49;27.60;;;15.80;;
20090;SDS011;10205;49.678;6.560;2024-01-15T08:10:17;20.23;;;14.47;;
20090;SDS011;10205;49.678;6.560;2024-01-15T08:12:44;20.07;;;13.83;;
20090;SDS011;10205;49.678;6.560;2024-01-15T08:15:11;22.23;;;14.13;;
20090;SDS011;10205;49.678;6.560;2024-01-15T08:17:38;21.43;;;14.27;;
20090;SDS011;10205;49.678;6.560;2024-01-15T08:20:05;22.47;;;13.80;;
20090;SDS011;10205;49.678;6.560;2024-01-15T08:22:33;21.77;;;14.73;;
20090;SDS011;10205;49.678;6.560;2024-01-15T08:25:02;21.37;;;14.17;;
20090;SDS011;10205;49.678;6.560;2024-01-15T08:27:29;22.87;;;13.93;;
20090;SDS011;10205;49.678;6.560;2024-01-15T08:29:56;21.63;;;14.53;;
20090;SDS011;10205;49.678;6.560;2024-01-15T08:32:23;20.23;;;13.90;;
20090;SDS011;10205;49.678;6.560;2024-01-15T08:34:51;20.77;;;13.40;;
20090;SDS011;10205;49.678;6.560;2024-01-15T08:37:18;22.37;;;14.10;;
20090;SDS011;10205;49.678;6.560;2024-01-15T08:39:45;22.57;;;13.83;;
20090;SDS011;10205;49.678;6.560;2024-01-15T08:42:14;22.63;;;14.30;;
20090;SDS011;10205;49.678;6.560;2024-01-15T08:44:41;20.37;;;14.13;;
20090;SDS011;10205;49.678;6.560;2024-01-15T08:47:08;22.40;;;14.53;;
20090;SDS011;10205;49.678;6.560;2024-01-15T08:49:35;22.77;;;14.77;;
20090;SDS011;10205;49.678;6.560;2024-01-15T08:52:03;22.23;;;14.47;;
20090;SDS011;10205;49.678;6.560;2024-01-15T08:54:30;21.33;;;13.77;;
20090;SDS011;10205;49.678;6.560;2024-01-15T08:56:57;20.93;;;14.03;;
20090;SDS011;10205;49.678;6.560;2024-01-15T08:59:26;20.37;;;13.73;;
20090;SDS011;10205;49.678;6.560;2024-01-15T09:01:53;18.07;;;12.50;;
20090;SDS011;10205;49.678;6.560;2024-01-15T09:04:22;18.10;;;12.50;;
20090;SDS011;10205;49.678;6.560;2024-01-15T09:06:49;18.93;;;13.00;;
20090;SDS011;10205;49.678;6.560;2024-01-15T09:09:16;17.00;;;12.07;;
20090;SDS011;10205;49.678;6.560;2024-01-15T09:11:44;18.73;;;13.33;;
20090;SDS011;10205;49.678;6.560;2024-01-15T09:14:11;18.87;;;12.90;;
20090;SDS011;10205;49.678;6.560;2024-01-15T09:16:40;19.90;;;13.80;;
20090;SDS011;10205;49.678;6.560;2024-01-15T09:19:07;20.13;;;13.53;;
20090;SDS011;10205;49.678;6.560;2024-01-15T09:21:34;21.23;;;12.60;;
20090;SDS011;10205;49.678;6.560;2024-01-15T09:24:04;18.13;;;12.77;;
20090;SDS011;10205;49.678;6.560;2024-01-15T09:26:31;18.73;;;12.47;;
20090;SDS011;10205;49.678;6.560;2024-01-15T09:28:58;18.77;;;11.87;;
20090;SDS011;10205;49.678;6.560;2024-01-15T09:31:26;16.33;;;11.83;;
20090;SDS011;10205;49.678;6.560;2024-01-15T09:33:54;17.03;;;11.27;;
20090;SDS011;10205;49.678;6.560;2024-01-15T09:36:23;17.60;;;11.40;;
20090;SDS011;10205;49.678;6.560;2024-01-15T09:38:50;17.97;;;11.33;;
20090;SDS011;10205;49.678;6.560;2024-01-15T09:41:17;17.00;;;12.07;;
20090;SDS011;10205;49.678;6.560;2024-01-15T09:43:45;17.47;;;12.47;;
20090;SDS011;10205;49.678;6.560;2024-01-15T09:46:13;16.87;;;12.30;;
20090;SDS011;10205;49.678;6.560;2024-01-15T09:48:42;15.60;;;11.30;;
20090;SDS011;10205;49.678;6.560;2024-01-15T09:51:11;18.37;;;12.47;;
20090;SDS011;10205;49.678;6.560;2024-01-15T09:53:38;17.43;;;12.40;;
20090;SDS011;10205;49.678;6.560;2024-01-15T09:56:07;16.73;;;10.87;;
20090;SDS011;10205;49.678;6.560;2024-01-15T09:58:37;20.40;;;12.07;;
20090;SDS011;10205;49.678;6.560;2024-01-15T10:01:06;18.23;;;12.27;;
20090;SDS011;10205;49.678;6.560;2024-01-15T10:03:35;16.57;;;11.60;;
20090;SDS011;10205;49.678;6.560;2024-01-15T10:06:03;15.57;;;11.17;;
20090;SDS011;10205;49.678;6.560;2024-01-15T10:08:33;16.13;;;11.10;;
20090;SDS011;10205;49.678;6.560;2024-01-15T10:11:03;15.37;;;10.70;;
20090;SDS011;10205;49.678;6.560;2024-01-15T10:13:30;16.53;;;10.80;;
20090;SDS011;10205;49.678;6.560;2024-01-15T10:15:57;16.73;;;11.37;;
20090;SDS011;10205;49.678;6.560;2024-01-15T10:18:28;14.40;;;10.43;;
20090;SDS011;10205;49.678;6.560;2024-01-15T10:20:56;13.80;;;10.20;;
20090;SDS011;10205;49.678;6.560;2024-01-15T10:23:23;14.97;;;10.40;;
20090;SDS011;10205;49.678;6.560;2024-01-15T10:25:52;14.73;;;10.73;;
20090;SDS011;10205;49.678;6.560;2024-01-15T10:28:19;14.40;;;10.20;;
20090;SDS011;10205;49.678;6.560;2024-01-15T10:30:46;15.77;;;11.80;;
20090;SDS011;10205;49.678;6.560;2024-01-15T10:33:19;13.00;;;10.17;;
20090;SDS011;10205;49.678;6.560;2024-01-15T10:35:51;13.97;;;10.50;;
20090;SDS011;10205;49.678;6.560;2024-01-15T10:38:21;16.47;;;11.00;;
20090;SDS011;10205;49.678;6.560;2024-01-15T10:40:52;15.63;;;10.67;;
20090;SDS011;10205;49.678;6.560;2024-01-15T10:43:19;13.23;;;9.13;;
20090;SDS011;10205;49.678;6.560;2024-01-15T10:45:48;15.13;;;10.27;;
20090;SDS011;10205;49.678;6.560;2024-01-15T10:48:17;14.40;;;10.00;;
20090;SDS011;10205;49.678;6.560;2024-01-15T10:50:45;14.40;;;9.80;;
20090;SDS011;10205;49.678;6.560;2024-01-15T10:53:14;12.30;;;9.10;;
20090;SDS011;10205;49.678;6.560;2024-01-15T10:55:43;12.77;;;9.47;;
20090;SDS011;10205;49.678;6.560;2024-01-15T10:58:15;14.10;;;9.83;;
20090;SDS011;10205;49.678;6.560;2024-01-15T11:00:43;13.57;;;9.50;;
20090;SDS011;10205;49.678;6.560;2024-01-15T11:03:11;13.37;;;9.93;;
20090;SDS011;10205;49.678;6.560;2024-01-15T11:05:39;13.77;;;9.70;;
20090;SDS011;10205;49.678;6.560;2024-01-15T11:08:08;13.57;;;9.53;;
20090;SDS011;10205;49.678;6.560;2024-01-15T11:10:41;12.50;;;9.17;;
20090;SDS011;10205;49.678;6.560;2024-01-15T11:13:13;13.13;;;9.53;;
20090;SDS011;10205;49.678;6.560;2024-01-15T11:15:59;13.93;;;9.37;;
20090;SDS011;10205;49.678;6.560;2024-01-15T11:18:28;12.37;;;8.07;;
20090;SDS011;10205;49.678;6.560;2024-01-15T11:23:48;11.93;;;9.07;;
20090;SDS011;10205;49.678;6.560;2024-01-15T11:26:28;12.07;;;8.77;;
20090;SDS011;10205;49.678;6.560;2024-01-15T11:28:58;14.27;;;8.97;;
20090;SDS011;10205;49.678;6.560;2024-01-15T11:31:29;13.00;;;8.93;;
20090;SDS011;10205;49.678;6.560;2024-01-15T11:37:27;11.83;;;8.70;;
20090;SDS011;10205;49.678;6.560;2024-01-15T11:40:17;13.10;;;8.77;;
20090;SDS011;10205;49.678;6.560;2024-01-15T11:42:45;14.00;;;9.60;;
20090;SDS011;10205;49.678;6.560;2024-01-15T11:45:14;10.87;;;8.50;;
20090;SDS011;10205;49.678;6.560;2024-01-15T11:48:08;10.20;;;8.50;;
20090;SDS011;10205;49.678;6.560;2024-01-15T11:50:39;10.07;;;8.27;;
20090;SDS011;10205;49.678;6.560;2024-01-15T11:53:12;10.37;;;8.40;;
20090;SDS011;10205;49.678;6.560;2024-01-15T11:55:47;11.67;;;8.93;;
20090;SDS011;10205;49.678;6.560;2024-01-15T11:58:17;12.97;;;9.23;;
20090;SDS011;10205;49.678;6.560;2024-01-15T12:00:47;11.53;;;8.43;;
20090;SDS011;10205;49.678;6.560;2024-01-15T12:03:16;10.77;;;8.07;;
20090;SDS011;10205;49.678;6.560;2024-01-15T12:05:43;10.33;;;8.00;;
20090;SDS011;10205;49.678;6.560;2024-01-15T12:08:11;10.40;;;8.10;;
20090;SDS011;10205;49.678;6.560;2024-01-15T12:10:38;10.80;;;8.30;;
20090;SDS011;10205;49.678;6.560;2024-01-15T12:13:09;10.17;;;7.63;;
20090;SDS011;10205;49.678;6.560;2024-01-15T12:15:38;12.20;;;8.03;;
20090;SDS011;10205;49.678;6.560;2024-01-15T12:18:09;10.07;;;7.47;;
20090;SDS011;10205;49.678;6.560;2024-01-15T12:20:39;11.87;;;7.77;;
20090;SDS011;10205;49.678;6.560;2024-01-15T12:23:07;9.03;;;7.37;;
20090;SDS011;10205;49.678;6.560;2024-01-15T12:25:35;9.63;;;6.90;;
20090;SDS011;10205;49.678;6.560;2024-01-15T12:28:02;9.07;;;7.23;;
20090;SDS011;10205;49.678;6.560;2024-01-15T12:30:30;8.60;;;6.97;;
20090;SDS011;10205;49.678;6.560;2024-01-15T12:33:02;10.03;;;7.33;;
20090;SDS011;10205;49.678;6.560;2024-01-15T12:35:31;9.97;;;7.00;;
20090;SDS011;10205;49.678;6.560;2024-01-15T12:38:00;10.60;;;6.80;;
20090;SDS011;10205;49.678;6.560;2024-01-15T12:40:28;9.33;;;6.73;;
20090;SDS011;10205;49.678;6.560;2024-01-15T12:42:57;7.23;;;5.90;;
20090;SDS011;10205;49.678;6.560;2024-01-15T12:45:24;8.33;;;6.40;;
20090;SDS011;10205;49.678;6.560;2024-01-15T12:47:52;8.63;;;6.77;;
20090;SDS011;10205;49.678;6.560;2024-01-15T12:50:23;8.93;;;6.30;;
20090;SDS011;10205;49.678;6.560;2024-01-15T12:52:53;7.37;;;6.00;;
20090;SDS011;10205;49.678;6.560;2024-01-15T12:55:20;6.40;;;5.67;;
20090;SDS011;10205;49.678;6.560;2024-01-15T12:57:47;7.60;;;5.77;;
20090;SDS011;10205;49.678;6.560;2024-01-15T13:00:19;7.07;;;5.50;;
20090;SDS011;10205;49.678;6.560;2024-01-15T13:02:46;7.00;;;5.03;;
20090;SDS011;10205;49.678;6.560;2024-01-15T13:05:14;9.03;;;5.50;;
20090;SDS011;10205;49.678;6.560;2024-01-15T13:07:43;6.53;;;5.17;;
20090;SDS011;10205;49.678;6.560;2024-01-15T13:10:13;5.70;;;5.00;;
20090;SDS011;10205;49.678;6.560;2024-01-15T13:12:40;6.13;;;4.90;;
20090;SDS011;10205;49.678;6.560;2024-01-15T13:15:07;7.67;;;5.47;;
20090;SDS011;10205;49.678;6.560;2024-01-15T13:17:36;7.40;;;5.30;;
20090;SDS011;10205;49.678;6.560;2024-01-15T13:20:05;4.83;;;4.33;;
20090;SDS011;10205;49.678;6.560;2024-01-15T13:22:34;6.47;;;4.67;;
20090;SDS011;10205;49.678;6.560;2024-01-15T13:25:04;4.97;;;4.43;;
20090;SDS011;10205;49.678;6.560;2024-01-15T13:27:34;6.87;;;4.30;;
20090;SDS011;10205;49.678;6.560;2024-01-15T13:30:03;6.20;;;4.40;;
20090;SDS011;10205;49.678;6.560;2024-01-15T13:32:32;5.73;;;4.07;;
20090;SDS011;10205;49.678;6.560;2024-01-15T13:34:59;4.40;;;4.00;;
20090;SDS011;10205;49.678;6.560;2024-01-15T13:37:27;6.43;;;3.77;;
20090;SDS011;10205;49.678;6.560;2024-01-15T13:39:54;5.83;;;4.67;;
20090;SDS011;10205;49.678;6.560;2024-01-15T13:42:21;4.47;;;3.10;;
20090;SDS011;10205;49.678;6.560;2024-01-15T13:44:49;5.00;;;3.70;;
20090;SDS011;10205;49.678;6.560;2024-01-15T13:47:17;4.93;;;3.63;;
20090;SDS011;10205;49.678;6.560;2024-01-15T13:49:44;3.93;;;3.50;;
20090;SDS011;10205;49.678;6.560;2024-01-15T13:52:11;3.70;;;2.90;;
20090;SDS011;10205;49.678;6.560;2024-01-15T13:54:38;4.77;;;2.87;;
20090;SDS011;10205;49.678;6.560;2024-01-15T13:57:05;4.00;;;2.63;;
20090;SDS011;10205;49.678;6.560;2024-01-15T13:59:32;3.77;;;2.47;;
20090;SDS011;10205;49.678;6.560;2024-01-15T14:02:01;3.10;;;2.50;;
20090;SDS011;10205;49.678;6.560;2024-01-15T14:04:28;4.67;;;2.67;;
20090;SDS011;10205;49.678;6.560;2024-01-15T14:06:55;5.07;;;2.60;;
20090;SDS011;10205;49.678;6.560;2024-01-15T14:09:22;3.30;;;2.33;;
20090;SDS011;10205;49.678;6.560;2024-01-15T14:11:50;3.03;;;2.63;;
20090;SDS011;10205;49.678;6.560;2024-01-15T14:14:18;2.67;;;2.47;;
20090;SDS011;10205;49.678;6.560;2024-01-15T14:16:45;2.73;;;2.43;;
20090;SDS011;10205;49.678;6.560;2024-01-15T14:19:13;5.03;;;2.50;;
20090;SDS011;10205;49.678;6.560;2024-01-15T14:21:40;3.23;;;2.20;;
20090;SDS011;10205;49.678;6.560;2024-01-15T14:24:08;5.70;;;2.80;;
20090;SDS011;10205;49.678;6.560;2024-01-15T14:26:35;2.60;;;2.40;;
20090;SDS011;10205;49.678;6.560;2024-01-15T14:29:02;3.27;;;2.10;;
20090;SDS011;10205;49.678;6.560;2024-01-15T14:31:30;2.77;;;2.00;;
20090;SDS011;10205;49.678;6.560;2024-01-15T14:33:59;3.17;;;2.27;;
20090;SDS011;10205;49.678;6.560;2024-01-15T14:36:29;2.60;;;2.20;;